Lynwood, Minnesota
Current Conditions -  °F | °C
As of 6:53 PM on Tuesday 27 Jan 2015 (Local Time) from KHIB Reporting Station
Overcast Overcast  
Wind Chill: 22°   Ceiling: 10000
Heat Index: 29°   Visibility: 10mi
Dew Point: 22°   Wind: 7mph
Humidity: 75%   Direction: 160°SSE
Pressure: 30.09"   Gusts: NA
Location:  47.4158°N, 93.0053°W
Report Text: KHIB 280053Z AUTO 16006KT 10SM SCT015 OVC100 M02/M06 A3009 RMK AO2 SLP210 T10171056
Loading
Personal Weather Stations






























Interactive Weather Map New forecast layout! Learn more

10-Day Weather Forecast

Advertisements
Track Severe Weather on mobile